createdAt,value
2022-08-20T00:01:01.955Z,4.50
2022-08-20T00:03:34.190Z,4.60
2022-08-20T00:06:11.226Z,4.70
2022-08-20T00:08:37.677Z,4.80
2022-08-20T00:11:05.549Z,5.12
2022-08-20T00:13:44.170Z,5.32
2022-08-20T00:16:10.477Z,5.20
2022-08-20T00:18:36.921Z,5.30
2022-08-20T00:21:05.417Z,5.97
2022-08-20T00:23:31.701Z,5.87
2022-08-20T00:25:57.937Z,5.12
2022-08-20T00:28:24.177Z,5.68
2022-08-20T00:30:50.664Z,5.53
2022-08-20T00:33:21.158Z,4.60
2022-08-20T00:35:49.479Z,4.20
2022-08-20T00:38:15.768Z,4.25
2022-08-20T00:40:45.691Z,4.93
2022-08-20T00:43:35.554Z,4.57
2022-08-20T00:46:07.197Z,4.20
2022-08-20T00:48:34.883Z,4.03
2022-08-20T00:51:14.781Z,4.00
2022-08-20T00:53:41.688Z,3.92
2022-08-20T00:56:08.601Z,4.07
2022-08-20T00:58:35.487Z,3.62
2022-08-20T01:01:01.739Z,3.70
2022-08-20T01:03:27.954Z,3.50
2022-08-20T01:05:54.235Z,3.90
2022-08-20T01:08:23.929Z,4.30
2022-08-20T01:10:53.097Z,4.70
2022-08-20T01:13:23.066Z,4.47
2022-08-20T01:15:51.312Z,4.50
2022-08-20T01:18:20.437Z,4.40
2022-08-20T01:20:49.623Z,4.32
2022-08-20T01:23:36.152Z,4.70
2022-08-20T01:26:13.573Z,4.90
2022-08-20T01:28:45.522Z,5.07
2022-08-20T01:31:25.841Z,4.80
2022-08-20T01:33:52.803Z,4.90
2022-08-20T01:36:22.778Z,4.50
2022-08-20T01:38:54.702Z,4.75
2022-08-20T01:44:53.126Z,4.82
2022-08-20T01:47:38.438Z,4.55
2022-08-20T01:50:17.808Z,4.95
2022-08-20T01:52:57.500Z,4.75
2022-08-20T01:55:23.836Z,5.03
2022-08-20T01:57:50.076Z,4.95
2022-08-20T02:00:19.594Z,5.00
2022-08-20T02:02:46.519Z,4.80
2022-08-20T02:05:12.784Z,5.07
2022-08-20T02:07:39.020Z,5.30
2022-08-20T02:10:06.688Z,5.45
2022-08-20T02:12:32.927Z,5.32
2022-08-20T02:14:59.891Z,5.30
2022-08-20T02:17:26.609Z,5.07
2022-08-20T02:19:59.128Z,5.30
2022-08-20T02:23:00.519Z,5.10
2022-08-20T02:25:28.564Z,4.43
2022-08-20T02:27:55.779Z,4.95
2022-08-20T02:30:28.599Z,5.15
2022-08-20T02:32:56.883Z,5.68
2022-08-20T02:35:23.999Z,6.12
2022-08-20T02:37:50.265Z,6.05
2022-08-20T02:40:18.084Z,6.03
2022-08-20T02:42:54.599Z,5.15
2022-08-20T02:45:21.981Z,4.65
2022-08-20T02:47:48.279Z,4.28
2022-08-20T02:50:16.947Z,4.03
2022-08-20T02:52:47.182Z,3.65
2022-08-20T02:55:28.090Z,3.67
2022-08-20T02:57:59.624Z,3.60
2022-08-20T03:00:27.691Z,3.60
2022-08-20T03:02:53.965Z,3.60
2022-08-20T03:05:20.597Z,3.75
2022-08-20T03:07:49.107Z,3.90
2022-08-20T03:10:17.285Z,4.00
2022-08-20T03:12:43.522Z,4.40
2022-08-20T03:15:17.561Z,4.20
2022-08-20T03:17:44.972Z,4.32
2022-08-20T03:20:11.818Z,4.40
2022-08-20T03:22:38.044Z,4.40
2022-08-20T03:25:04.924Z,4.40
2022-08-20T03:27:32.660Z,4.60
2022-08-20T03:30:06.051Z,4.43
2022-08-20T03:32:33.111Z,4.70
2022-08-20T03:34:59.344Z,4.90
2022-08-20T03:37:30.594Z,4.68
2022-08-20T03:39:57.144Z,5.00
2022-08-20T03:42:23.721Z,4.82
2022-08-20T03:44:59.003Z,5.07
2022-08-20T03:47:26.429Z,4.75
2022-08-20T03:49:56.804Z,4.78
2022-08-20T03:52:23.187Z,4.93
2022-08-20T03:54:50.131Z,4.62
2022-08-20T03:57:16.468Z,4.95
2022-08-20T03:59:43.891Z,4.70
2022-08-20T04:02:11.652Z,4.70
2022-08-20T04:04:40.007Z,4.65
2022-08-20T04:07:25.148Z,4.53
2022-08-20T04:13:41.479Z,4.80
2022-08-20T04:20:09.449Z,4.82
2022-08-20T04:22:37.541Z,4.95
2022-08-20T04:25:08.258Z,4.82
2022-08-20T04:27:36.777Z,5.00
2022-08-20T04:30:07.112Z,4.70
2022-08-20T04:32:36.209Z,4.70
2022-08-20T04:35:06.710Z,4.87
2022-08-20T04:37:33.933Z,4.87
2022-08-20T04:40:27.011Z,5.03
2022-08-20T04:42:53.344Z,5.37
2022-08-20T04:45:21.712Z,5.45
2022-08-20T04:47:49.249Z,5.15
2022-08-20T04:50:15.601Z,4.80
2022-08-20T04:52:41.987Z,4.72
2022-08-20T04:55:09.673Z,4.45
2022-08-20T04:57:37.706Z,4.47
2022-08-20T05:00:13.415Z,4.60
2022-08-20T05:02:39.718Z,4.75
2022-08-20T05:05:07.767Z,4.70
2022-08-20T05:07:42.928Z,4.65
2022-08-20T05:10:10.916Z,4.68
2022-08-20T05:12:37.207Z,4.70
2022-08-20T05:15:08.262Z,4.97
2022-08-20T05:17:34.562Z,5.07
2022-08-20T05:20:00.817Z,4.78
2022-08-20T05:22:31.049Z,5.00
2022-08-20T05:25:01.208Z,5.15
2022-08-20T05:27:28.715Z,5.70
2022-08-20T05:30:10.239Z,6.00
2022-08-20T05:32:44.487Z,7.22
2022-08-20T05:35:11.667Z,8.52
2022-08-20T05:37:38.723Z,8.80
2022-08-20T05:40:14.067Z,9.05
2022-08-20T05:42:40.516Z,9.18
2022-08-20T05:45:11.125Z,9.30
2022-08-20T05:47:42.880Z,8.02
2022-08-20T05:50:11.069Z,6.05
2022-08-20T05:52:47.172Z,5.25
2022-08-20T05:55:14.520Z,5.95
2022-08-20T05:57:40.933Z,6.65
2022-08-20T06:00:10.006Z,6.60
2022-08-20T06:02:54.945Z,6.20
2022-08-20T06:05:21.275Z,6.50
2022-08-20T06:07:47.695Z,5.40
2022-08-20T06:10:14.031Z,5.50
2022-08-20T06:12:40.305Z,5.65
2022-08-20T06:15:07.091Z,6.93
2022-08-20T06:17:34.876Z,8.93
2022-08-20T06:20:07.997Z,7.68
2022-08-20T06:22:34.857Z,6.72
2022-08-20T06:25:02.041Z,6.68
2022-08-20T06:27:29.447Z,6.10
2022-08-20T06:29:55.747Z,5.03
2022-08-20T06:32:32.485Z,5.55
2022-08-20T06:35:05.345Z,6.20
2022-08-20T06:37:36.104Z,6.25
2022-08-20T06:40:12.183Z,5.20
2022-08-20T06:42:47.829Z,4.45
2022-08-20T06:45:21.335Z,4.43
2022-08-20T06:47:47.733Z,4.40
2022-08-20T06:50:17.888Z,4.15
2022-08-20T06:52:52.219Z,4.28
2022-08-20T06:55:30.269Z,4.60
2022-08-20T06:58:01.840Z,4.80
2022-08-20T07:00:28.380Z,5.12
2022-08-20T07:02:54.922Z,4.93
2022-08-20T07:05:21.210Z,5.07
2022-08-20T07:07:49.269Z,5.40
2022-08-20T07:10:16.811Z,4.40
2022-08-20T07:12:44.294Z,4.50
2022-08-20T07:15:11.450Z,4.20
2022-08-20T07:17:38.457Z,4.00
2022-08-20T07:20:10.484Z,4.00
2022-08-20T07:22:36.731Z,4.03
2022-08-20T07:25:04.216Z,4.10
2022-08-20T07:27:30.565Z,4.10
2022-08-20T07:30:15.412Z,4.40
2022-08-20T07:32:45.296Z,4.57
2022-08-20T07:35:14.559Z,4.50
2022-08-20T07:37:42.772Z,4.30
2022-08-20T07:40:33.145Z,4.28
2022-08-20T07:43:02.934Z,4.40
2022-08-20T07:45:29.958Z,4.80
2022-08-20T07:48:08.390Z,5.00
2022-08-20T07:50:34.665Z,6.10
2022-08-20T07:53:01.414Z,6.50
2022-08-20T07:55:27.729Z,7.20
2022-08-20T07:57:55.307Z,8.15
2022-08-20T08:00:22.472Z,7.70
2022-08-20T08:02:49.475Z,6.80
2022-08-20T08:05:18.012Z,6.82
2022-08-20T08:07:45.562Z,7.70
2022-08-20T08:10:15.130Z,5.12
2022-08-20T08:12:44.943Z,4.80
2022-08-20T08:15:14.993Z,5.12
2022-08-20T08:17:44.140Z,5.53
2022-08-20T08:20:11.672Z,5.03
2022-08-20T08:22:41.094Z,5.47
2022-08-20T08:25:12.484Z,5.43
2022-08-20T08:27:40.349Z,5.70
2022-08-20T08:30:08.306Z,5.62
2022-08-20T08:33:27.099Z,6.30
2022-08-20T08:36:11.174Z,7.78
2022-08-20T08:38:39.432Z,8.85
2022-08-20T08:44:39.619Z,6.35
2022-08-20T08:47:17.726Z,7.72
2022-08-20T08:49:45.285Z,12.68
2022-08-20T08:52:14.578Z,5.10
2022-08-20T08:54:44.555Z,4.90
2022-08-20T08:57:11.289Z,4.07
2022-08-20T08:59:52.089Z,4.35
2022-08-20T09:02:30.212Z,4.25
2022-08-20T09:04:58.066Z,4.15
2022-08-20T09:07:26.299Z,4.18
2022-08-20T09:09:52.678Z,4.03
2022-08-20T09:12:21.202Z,4.30
2022-08-20T09:14:48.547Z,7.05
2022-08-20T09:17:19.857Z,6.60
2022-08-20T09:19:46.342Z,6.97
2022-08-20T09:22:15.084Z,7.57
2022-08-20T09:24:41.959Z,9.77
2022-08-20T09:27:08.368Z,23.90
2022-08-20T09:29:35.134Z,27.48
2022-08-20T09:32:09.864Z,34.55
2022-08-20T09:34:58.340Z,30.35
2022-08-20T09:37:25.888Z,23.45
2022-08-20T09:39:52.300Z,32.80
2022-08-20T09:42:26.625Z,34.08
2022-08-20T09:44:52.996Z,23.50
2022-08-20T09:47:19.342Z,30.90
2022-08-20T09:49:45.660Z,27.00
2022-08-20T09:52:24.790Z,25.85
2022-08-20T09:54:52.298Z,24.60
2022-08-20T09:57:18.771Z,20.80
2022-08-20T09:59:45.546Z,26.60
2022-08-20T10:02:11.901Z,27.50
2022-08-20T10:04:38.324Z,25.55
2022-08-20T10:07:08.053Z,20.17
2022-08-20T10:09:35.439Z,13.45
2022-08-20T10:12:01.947Z,24.27
2022-08-20T10:14:28.241Z,19.73
2022-08-20T10:17:00.042Z,23.25
2022-08-20T10:19:26.948Z,18.45
2022-08-20T10:21:53.435Z,15.95
2022-08-20T10:24:20.123Z,12.50
2022-08-20T10:26:46.434Z,12.02
2022-08-20T10:29:13.011Z,9.77
2022-08-20T10:31:40.153Z,13.32
2022-08-20T10:34:06.517Z,10.80
2022-08-20T10:36:32.930Z,9.10
2022-08-20T10:38:59.185Z,9.30
2022-08-20T10:41:25.679Z,9.52
2022-08-20T10:43:51.946Z,9.00
2022-08-20T10:46:18.338Z,9.50
2022-08-20T10:48:45.250Z,9.23
2022-08-20T10:51:11.764Z,9.40
2022-08-20T10:53:38.404Z,10.35
2022-08-20T10:56:04.857Z,12.68
2022-08-20T10:58:39.307Z,15.05
2022-08-20T11:01:06.670Z,13.82
2022-08-20T11:03:33.405Z,13.15
2022-08-20T11:05:59.938Z,15.32
2022-08-20T11:08:34.045Z,16.98
2022-08-20T11:11:02.762Z,13.88
2022-08-20T11:13:29.127Z,12.23
2022-08-20T11:15:55.563Z,16.05
2022-08-20T11:18:23.251Z,19.67
2022-08-20T11:20:49.868Z,18.70
2022-08-20T11:23:16.189Z,19.08
2022-08-20T11:25:42.511Z,22.05
2022-08-20T11:28:08.798Z,22.42
2022-08-20T11:30:35.647Z,16.65
2022-08-20T11:33:02.030Z,13.93
2022-08-20T11:35:49.509Z,13.65
2022-08-20T11:38:16.682Z,13.20
2022-08-20T11:40:42.906Z,12.32
2022-08-20T11:43:17.468Z,12.48
2022-08-20T11:45:49.190Z,12.32
2022-08-20T11:48:16.263Z,12.63
2022-08-20T11:50:42.552Z,11.30
2022-08-20T11:53:08.924Z,11.50
2022-08-20T11:55:35.509Z,11.48
2022-08-20T11:58:01.926Z,11.63
2022-08-20T12:00:32.154Z,17.85
2022-08-20T12:03:00.721Z,19.90
2022-08-20T12:05:29.029Z,14.87
2022-08-20T12:07:55.385Z,11.88
2022-08-20T12:10:23.861Z,8.82
2022-08-20T12:12:50.245Z,11.40
2022-08-20T12:15:16.750Z,13.57
2022-08-20T12:17:43.188Z,13.85
2022-08-20T12:20:11.050Z,16.42
2022-08-20T12:22:37.382Z,17.25
2022-08-20T12:25:04.653Z,19.98
2022-08-20T12:27:31.588Z,18.62
2022-08-20T12:30:00.376Z,22.67
2022-08-20T12:32:28.643Z,16.70
2022-08-20T12:34:55.048Z,17.60
2022-08-20T12:37:26.665Z,14.68
2022-08-20T12:39:54.450Z,14.87
2022-08-20T12:42:21.101Z,15.95
2022-08-20T12:44:47.701Z,14.32
2022-08-20T12:47:16.344Z,13.45
2022-08-20T12:49:45.283Z,13.05
2022-08-20T12:52:12.403Z,12.55
2022-08-20T12:54:38.821Z,11.35
2022-08-20T12:57:07.980Z,10.32
2022-08-20T12:59:34.539Z,9.95
2022-08-20T13:02:06.982Z,10.55
2022-08-20T13:04:40.851Z,12.43
2022-08-20T13:07:09.512Z,13.65
2022-08-20T13:09:38.427Z,12.68
2022-08-20T13:12:07.498Z,14.13
2022-08-20T13:14:34.390Z,19.12
2022-08-20T13:17:01.387Z,22.45
2022-08-20T13:19:28.257Z,22.50
2022-08-20T13:21:55.105Z,13.48
2022-08-20T13:24:22.455Z,10.25
2022-08-20T13:26:48.945Z,8.23
2022-08-20T13:29:15.415Z,6.10
2022-08-20T13:31:41.767Z,5.70
2022-08-20T13:34:08.037Z,4.93
2022-08-20T13:36:34.464Z,5.40
2022-08-20T13:39:01.404Z,6.10
2022-08-20T13:41:27.736Z,8.10
2022-08-20T13:43:54.085Z,8.48
2022-08-20T13:46:21.020Z,15.13
2022-08-20T13:48:47.686Z,11.98
2022-08-20T13:51:13.962Z,6.60
2022-08-20T13:53:45.694Z,6.85
2022-08-20T13:56:13.105Z,9.45
2022-08-20T13:58:39.487Z,10.38
2022-08-20T14:01:06.171Z,10.75
2022-08-20T14:03:34.544Z,8.52
2022-08-20T14:06:02.126Z,8.18
2022-08-20T14:08:28.507Z,6.00
2022-08-20T14:10:54.806Z,6.03
2022-08-20T14:13:22.575Z,7.10
2022-08-20T14:15:49.263Z,7.32
2022-08-20T14:18:15.524Z,10.10
2022-08-20T14:20:42.062Z,11.43
2022-08-20T14:23:11.655Z,12.95
2022-08-20T14:25:38.030Z,14.00
2022-08-20T14:28:12.163Z,12.30
2022-08-20T14:30:39.241Z,12.68
2022-08-20T14:33:05.546Z,11.50
2022-08-20T14:35:34.633Z,11.65
2022-08-20T14:38:01.737Z,10.20
2022-08-20T14:40:31.682Z,9.55
2022-08-20T14:42:58.205Z,14.75
2022-08-20T14:45:24.799Z,17.05
2022-08-20T14:47:56.408Z,18.42
2022-08-20T14:50:27.987Z,21.42
2022-08-20T14:52:54.781Z,21.50
2022-08-20T14:55:22.631Z,24.15
2022-08-20T14:57:51.508Z,22.15
2022-08-20T15:00:20.863Z,17.15
2022-08-20T15:02:47.353Z,15.68
2022-08-20T15:05:13.847Z,10.80
2022-08-20T15:07:42.917Z,10.25
2022-08-20T15:10:12.132Z,11.52
2022-08-20T15:12:38.402Z,13.55
2022-08-20T15:15:15.631Z,14.52
2022-08-20T15:17:44.694Z,18.37
2022-08-20T15:20:19.918Z,25.42
2022-08-20T15:22:46.886Z,24.63
2022-08-20T15:25:14.550Z,15.77
2022-08-20T15:27:41.384Z,12.15
2022-08-20T15:30:10.749Z,6.60
2022-08-20T15:32:37.526Z,5.03
2022-08-20T15:35:04.299Z,5.90
2022-08-20T15:37:32.124Z,9.07
2022-08-20T15:40:02.324Z,8.18
2022-08-20T15:42:28.683Z,6.03
2022-08-20T15:44:55.058Z,3.90
2022-08-20T15:47:33.458Z,4.00
2022-08-20T15:50:14.814Z,4.03
2022-08-20T15:52:42.730Z,4.57
2022-08-20T15:55:12.135Z,5.20
2022-08-20T16:01:29.387Z,4.80
2022-08-20T16:06:33.318Z,3.37
2022-08-20T16:09:33.904Z,9.73
2022-08-20T16:12:08.190Z,7.25
2022-08-20T16:14:37.048Z,8.20
2022-08-20T16:17:15.441Z,6.20
2022-08-20T16:19:56.075Z,4.82
2022-08-20T16:22:22.304Z,4.32
2022-08-20T16:24:48.595Z,4.53
2022-08-20T16:27:35.398Z,4.70
2022-08-20T16:30:11.181Z,4.37
2022-08-20T16:32:40.802Z,4.35
2022-08-20T16:35:32.948Z,4.12
2022-08-20T16:38:21.463Z,3.78
2022-08-20T16:41:01.529Z,3.75
2022-08-20T16:43:45.395Z,4.07
2022-08-20T16:46:20.126Z,4.05
2022-08-20T16:48:57.649Z,3.85
2022-08-20T16:51:47.099Z,4.28
2022-08-20T16:54:16.213Z,4.87
2022-08-20T16:56:44.630Z,4.93
2022-08-20T16:59:27.073Z,5.25
2022-08-20T17:02:27.597Z,8.25
2022-08-20T17:04:59.246Z,8.68
2022-08-20T17:07:46.170Z,9.98
2022-08-20T17:10:30.571Z,8.80
2022-08-20T17:13:44.151Z,9.05
2022-08-20T17:16:18.743Z,9.05
2022-08-20T17:18:52.464Z,9.23
2022-08-20T17:21:25.586Z,9.77
2022-08-20T17:23:56.751Z,8.20
2022-08-20T17:26:32.199Z,6.90
2022-08-20T17:29:00.169Z,5.37
2022-08-20T17:31:38.535Z,5.28
2022-08-20T17:34:17.864Z,5.00
2022-08-20T17:37:07.601Z,4.40
2022-08-20T17:39:34.047Z,4.55
2022-08-20T17:42:13.645Z,4.20
2022-08-20T17:44:45.071Z,3.80
2022-08-20T17:47:15.750Z,3.40
2022-08-20T17:50:02.222Z,3.40
2022-08-20T17:52:41.828Z,3.50
2022-08-20T17:55:08.806Z,3.30
2022-08-20T17:57:37.586Z,3.30
2022-08-20T18:00:08.097Z,3.50
2022-08-20T18:02:36.890Z,4.25
2022-08-20T18:05:11.032Z,4.37
2022-08-20T18:07:55.268Z,4.12
2022-08-20T18:10:23.374Z,4.05
2022-08-20T18:13:02.786Z,4.18
2022-08-20T18:15:35.851Z,4.07
2022-08-20T18:18:57.537Z,4.30
2022-08-20T18:22:53.031Z,4.15
2022-08-20T18:26:35.976Z,4.12
2022-08-20T18:29:13.960Z,4.32
2022-08-20T18:31:51.568Z,4.30
2022-08-20T18:34:56.277Z,4.35
2022-08-20T18:37:26.993Z,4.40
2022-08-20T18:40:09.735Z,4.70
2022-08-20T18:42:36.479Z,4.47
2022-08-20T18:45:03.932Z,4.40
2022-08-20T18:47:40.951Z,4.50
2022-08-20T18:50:42.307Z,4.60
2022-08-20T18:53:34.335Z,4.80
2022-08-20T18:56:08.685Z,4.43
2022-08-20T18:58:59.266Z,4.68
2022-08-20T19:01:26.205Z,4.40
2022-08-20T19:03:54.477Z,4.60
2022-08-20T19:06:55.485Z,4.43
2022-08-20T19:10:37.356Z,4.43
2022-08-20T19:13:16.473Z,4.20
2022-08-20T19:15:55.274Z,4.62
2022-08-20T19:18:26.002Z,4.75
2022-08-20T19:21:00.084Z,5.20
2022-08-20T19:23:28.307Z,5.00
2022-08-20T19:26:12.444Z,5.03
2022-08-20T19:29:06.209Z,4.82
2022-08-20T19:31:33.508Z,4.80
2022-08-20T19:34:23.869Z,4.87
2022-08-20T19:36:58.783Z,5.00
2022-08-20T19:39:29.016Z,4.82
2022-08-20T19:42:02.401Z,4.70
2022-08-20T19:44:38.252Z,4.70
2022-08-20T19:47:07.274Z,4.37
2022-08-20T19:50:36.469Z,4.90
2022-08-20T19:53:30.546Z,4.80
2022-08-20T19:56:40.604Z,4.70
2022-08-20T19:59:18.445Z,4.60
2022-08-20T20:02:20.512Z,4.68
2022-08-20T20:04:55.279Z,4.53
2022-08-20T20:07:45.161Z,4.60
2022-08-20T20:10:24.487Z,4.50
2022-08-20T20:12:51.669Z,4.25
2022-08-20T20:15:18.136Z,4.20
2022-08-20T20:17:44.842Z,4.50
2022-08-20T20:20:25.840Z,4.32
2022-08-20T20:23:03.118Z,4.25
2022-08-20T20:25:41.822Z,4.22
2022-08-20T20:28:17.900Z,4.00
2022-08-20T20:30:44.804Z,4.05
2022-08-20T20:33:58.249Z,4.07
2022-08-20T20:36:39.082Z,4.05
2022-08-20T20:39:14.300Z,4.00
2022-08-20T20:41:50.308Z,4.10
2022-08-20T20:44:35.108Z,4.18
2022-08-20T20:47:08.086Z,3.97
2022-08-20T20:49:53.497Z,4.05
2022-08-20T20:52:27.953Z,4.10
2022-08-20T20:55:38.243Z,4.10
2022-08-20T20:58:04.601Z,4.20
2022-08-20T21:00:32.203Z,4.00
2022-08-20T21:02:59.666Z,4.07
2022-08-20T21:05:29.768Z,4.07
2022-08-20T21:08:00.575Z,4.07
2022-08-20T21:10:29.803Z,4.15
2022-08-20T21:12:56.952Z,4.20
2022-08-20T21:15:23.730Z,4.18
2022-08-20T21:17:50.940Z,4.05
2022-08-20T21:20:18.264Z,4.28
2022-08-20T21:22:45.037Z,4.30
2022-08-20T21:25:14.118Z,4.30
2022-08-20T21:27:43.939Z,4.37
2022-08-20T21:30:11.959Z,3.90
2022-08-20T21:32:38.336Z,4.20
2022-08-20T21:35:06.569Z,4.22
2022-08-20T21:37:33.763Z,4.03
2022-08-20T21:40:00.443Z,4.10
2022-08-20T21:42:33.008Z,3.97
2022-08-20T21:45:10.041Z,4.10
2022-08-20T21:47:36.417Z,3.97
2022-08-20T21:50:04.807Z,4.03
2022-08-20T21:52:31.117Z,4.07
2022-08-20T21:54:57.637Z,3.92
2022-08-20T21:57:26.145Z,4.00
2022-08-20T21:59:52.425Z,4.07
2022-08-20T22:02:25.351Z,4.00
2022-08-20T22:04:53.885Z,4.07
2022-08-20T22:07:20.561Z,3.90
2022-08-20T22:09:47.080Z,3.80
2022-08-20T22:12:23.874Z,3.87
2022-08-20T22:14:50.427Z,3.80
2022-08-20T22:17:20.117Z,3.92
2022-08-20T22:19:47.500Z,4.00
2022-08-20T22:22:14.988Z,4.20
2022-08-20T22:24:41.868Z,4.20
2022-08-20T22:27:08.439Z,4.20
2022-08-20T22:29:35.737Z,4.20
2022-08-20T22:32:03.275Z,4.28
2022-08-20T22:34:31.561Z,4.40
2022-08-20T22:36:58.108Z,4.60
2022-08-20T22:39:24.576Z,4.55
2022-08-20T22:41:52.534Z,4.28
2022-08-20T22:44:18.892Z,4.40
2022-08-20T22:46:48.846Z,4.10
2022-08-20T22:49:17.147Z,4.37
2022-08-20T22:51:44.193Z,4.15
2022-08-20T22:54:12.035Z,4.32
2022-08-20T22:56:38.863Z,4.60
2022-08-20T22:59:07.275Z,4.70
2022-08-20T23:01:33.677Z,4.40
2022-08-20T23:04:05.528Z,4.50
2022-08-20T23:06:32.586Z,4.87
2022-08-20T23:08:58.829Z,4.40
2022-08-20T23:11:25.469Z,4.72
2022-08-20T23:13:51.942Z,4.80
2022-08-20T23:16:18.255Z,4.75
2022-08-20T23:18:44.588Z,4.70
2022-08-20T23:21:10.898Z,4.60
2022-08-20T23:23:37.578Z,4.35
2022-08-20T23:26:03.956Z,4.65
2022-08-20T23:28:30.249Z,4.40
2022-08-20T23:30:56.633Z,4.43
2022-08-20T23:33:22.920Z,4.40
2022-08-20T23:35:52.057Z,4.20
2022-08-20T23:38:19.943Z,4.15
2022-08-20T23:40:46.262Z,4.20
2022-08-20T23:43:12.897Z,4.10
2022-08-20T23:45:39.707Z,4.10
2022-08-20T23:48:07.203Z,4.10
2022-08-20T23:50:33.622Z,4.03
2022-08-20T23:52:59.917Z,4.10
2022-08-20T23:55:26.146Z,4.03
2022-08-20T23:57:52.637Z,4.03
